sensor_id;sensor_type;location;lat;lon;timestamp;pressure;altitude;pressure_sealevel;temperature;humidity
79639;BME280;69114;49.108;8.280;2024-02-23T00:02:13;98268.75;;;7.03;100.00
79639;BME280;69114;49.108;8.280;2024-02-23T00:04:38;98242.19;;;7.02;100.00
79639;BME280;69114;49.108;8.280;2024-02-23T00:07:03;98256.03;;;7.02;100.00
79639;BME280;69114;49.108;8.280;2024-02-23T00:09:29;98261.72;;;7.06;100.00
79639;BME280;69114;49.108;8.280;2024-02-23T00:11:54;98273.59;;;7.06;100.00
79639;BME280;69114;49.108;8.280;2024-02-23T00:14:20;98269.00;;;7.10;100.00
79639;BME280;69114;49.108;8.280;2024-02-23T00:16:46;98284.66;;;7.06;100.00
79639;BME280;69114;49.108;8.280;2024-02-23T00:19:11;98286.97;;;7.04;100.00
79639;BME280;69114;49.108;8.280;2024-02-23T00:21:37;98287.63;;;7.01;100.00
79639;BME280;69114;49.108;8.280;2024-02-23T00:24:03;98297.09;;;7.00;100.00
79639;BME280;69114;49.108;8.280;2024-02-23T00:26:29;98306.28;;;6.92;100.00
79639;BME280;69114;49.108;8.280;2024-02-23T00:28:54;98318.94;;;6.93;100.00
79639;BME280;69114;49.108;8.280;2024-02-23T00:31:20;98321.13;;;6.87;100.00
79639;BME280;69114;49.108;8.280;2024-02-23T00:33:45;98331.38;;;6.87;100.00
79639;BME280;69114;49.108;8.280;2024-02-23T00:36:10;98317.75;;;6.82;100.00
79639;BME280;69114;49.108;8.280;2024-02-23T00:38:36;98297.91;;;6.80;100.00
79639;BME280;69114;49.108;8.280;2024-02-23T00:41:01;98306.22;;;6.80;100.00
79639;BME280;69114;49.108;8.280;2024-02-23T00:43:27;98307.53;;;6.74;100.00
79639;BME280;69114;49.108;8.280;2024-02-23T00:45:54;98300.59;;;6.67;100.00
79639;BME280;69114;49.108;8.280;2024-02-23T00:48:20;98311.41;;;6.60;100.00
79639;BME280;69114;49.108;8.280;2024-02-23T00:50:45;98291.34;;;6.63;100.00
79639;BME280;69114;49.108;8.280;2024-02-23T00:53:10;98306.31;;;6.62;100.00
79639;BME280;69114;49.108;8.280;2024-02-23T00:55:36;98308.00;;;6.55;100.00
79639;BME280;69114;49.108;8.280;2024-02-23T00:58:01;98327.03;;;6.56;100.00
79639;BME280;69114;49.108;8.280;2024-02-23T01:03:02;98332.78;;;6.51;100.00
79639;BME280;69114;49.108;8.280;2024-02-23T01:05:27;98338.97;;;6.48;100.00
79639;BME280;69114;49.108;8.280;2024-02-23T01:07:53;98340.31;;;6.42;100.00
79639;BME280;69114;49.108;8.280;2024-02-23T01:10:18;98347.63;;;6.38;100.00
79639;BME280;69114;49.108;8.280;2024-02-23T01:12:43;98360.66;;;6.37;100.00
79639;BME280;69114;49.108;8.280;2024-02-23T01:15:09;98361.63;;;6.41;100.00
79639;BME280;69114;49.108;8.280;2024-02-23T01:17:34;98346.13;;;6.40;100.00
79639;BME280;69114;49.108;8.280;2024-02-23T01:20:00;98350.06;;;6.39;100.00
79639;BME280;69114;49.108;8.280;2024-02-23T01:22:25;98364.88;;;6.35;100.00
79639;BME280;69114;49.108;8.280;2024-02-23T01:24:50;98352.41;;;6.29;100.00
79639;BME280;69114;49.108;8.280;2024-02-23T01:27:16;98382.97;;;6.32;100.00
79639;BME280;69114;49.108;8.280;2024-02-23T01:29:41;98364.88;;;6.35;100.00
79639;BME280;69114;49.108;8.280;2024-02-23T01:32:06;98362.59;;;6.37;100.00
79639;BME280;69114;49.108;8.280;2024-02-23T01:34:32;98374.16;;;6.30;100.00
79639;BME280;69114;49.108;8.280;2024-02-23T01:36:58;98370.75;;;6.33;100.00
79639;BME280;69114;49.108;8.280;2024-02-23T01:39:24;98387.16;;;6.38;100.00
79639;BME280;69114;49.108;8.280;2024-02-23T01:41:49;98390.28;;;6.28;100.00
79639;BME280;69114;49.108;8.280;2024-02-23T01:44:15;98386.03;;;6.31;100.00
79639;BME280;69114;49.108;8.280;2024-02-23T01:46:42;98395.63;;;6.33;100.00
79639;BME280;69114;49.108;8.280;2024-02-23T01:49:09;98375.94;;;6.35;100.00
79639;BME280;69114;49.108;8.280;2024-02-23T01:51:35;98374.97;;;6.31;100.00
79639;BME280;69114;49.108;8.280;2024-02-23T01:54:01;98388.34;;;6.29;100.00
79639;BME280;69114;49.108;8.280;2024-02-23T01:56:26;98396.44;;;6.34;100.00
79639;BME280;69114;49.108;8.280;2024-02-23T01:58:52;98393.22;;;6.32;100.00
79639;BME280;69114;49.108;8.280;2024-02-23T02:01:19;98392.38;;;6.31;100.00
79639;BME280;69114;49.108;8.280;2024-02-23T02:03:44;98392.38;;;6.31;100.00
79639;BME280;69114;49.108;8.280;2024-02-23T02:06:10;98385.09;;;6.27;100.00
79639;BME280;69114;49.108;8.280;2024-02-23T02:08:36;98387.38;;;6.25;100.00
79639;BME280;69114;49.108;8.280;2024-02-23T02:11:03;98388.03;;;6.22;100.00
79639;BME280;69114;49.108;8.280;2024-02-23T02:13:29;98403.00;;;6.21;100.00
79639;BME280;69114;49.108;8.280;2024-02-23T02:15:54;98399.06;;;6.22;100.00
79639;BME280;69114;49.108;8.280;2024-02-23T02:18:19;98395.84;;;6.20;100.00
79639;BME280;69114;49.108;8.280;2024-02-23T02:20:54;98406.09;;;6.19;100.00
79639;BME280;69114;49.108;8.280;2024-02-23T02:23:20;98413.41;;;6.24;100.00
79639;BME280;69114;49.108;8.280;2024-02-23T02:25:45;98420.53;;;6.25;100.00
79639;BME280;69114;49.108;8.280;2024-02-23T02:28:11;98401.00;;;6.30;100.00
79639;BME280;69114;49.108;8.280;2024-02-23T02:30:37;98400.53;;;6.28;100.00
79639;BME280;69114;49.108;8.280;2024-02-23T02:33:03;98393.06;;;6.28;100.00
79639;BME280;69114;49.108;8.280;2024-02-23T02:35:28;98405.41;;;6.31;100.00
79639;BME280;69114;49.108;8.280;2024-02-23T02:37:53;98405.72;;;6.29;100.00
79639;BME280;69114;49.108;8.280;2024-02-23T02:40:19;98430.00;;;6.24;100.00
79639;BME280;69114;49.108;8.280;2024-02-23T02:42:44;98413.22;;;6.29;100.00
79639;BME280;69114;49.108;8.280;2024-02-23T02:45:09;98432.25;;;6.22;100.00
79639;BME280;69114;49.108;8.280;2024-02-23T02:47:35;98405.59;;;6.17;100.00
79639;BME280;69114;49.108;8.280;2024-02-23T02:50:01;98410.00;;;6.18;100.00
79639;BME280;69114;49.108;8.280;2024-02-23T02:52:26;98400.56;;;6.19;100.00
79639;BME280;69114;49.108;8.280;2024-02-23T02:54:53;98414.06;;;6.21;100.00
79639;BME280;69114;49.108;8.280;2024-02-23T02:57:19;98420.88;;;6.23;100.00
79639;BME280;69114;49.108;8.280;2024-02-23T02:59:44;98419.13;;;6.19;100.00
79639;BME280;69114;49.108;8.280;2024-02-23T03:02:11;98430.63;;;6.21;100.00
79639;BME280;69114;49.108;8.280;2024-02-23T03:04:36;98430.16;;;6.19;100.00
79639;BME280;69114;49.108;8.280;2024-02-23T03:07:01;98437.50;;;6.14;100.00
79639;BME280;69114;49.108;8.280;2024-02-23T03:09:27;98433.59;;;6.15;100.00
79639;BME280;69114;49.108;8.280;2024-02-23T03:11:52;98429.72;;;6.08;100.00
79639;BME280;69114;49.108;8.280;2024-02-23T03:14:17;98430.69;;;6.03;100.00
79639;BME280;69114;49.108;8.280;2024-02-23T03:16:44;98430.53;;;6.00;100.00
79639;BME280;69114;49.108;8.280;2024-02-23T03:19:09;98427.75;;;5.91;100.00
79639;BME280;69114;49.108;8.280;2024-02-23T03:21:34;98421.25;;;5.87;100.00
79639;BME280;69114;49.108;8.280;2024-02-23T03:24:00;98416.88;;;5.86;100.00
79639;BME280;69114;49.108;8.280;2024-02-23T03:26:25;98425.16;;;5.86;100.00
79639;BME280;69114;49.108;8.280;2024-02-23T03:28:50;98425.16;;;5.86;100.00
79639;BME280;69114;49.108;8.280;2024-02-23T03:31:15;98417.69;;;5.86;100.00
79639;BME280;69114;49.108;8.280;2024-02-23T03:33:41;98436.41;;;5.81;100.00
79639;BME280;69114;49.108;8.280;2024-02-23T03:36:06;98414.47;;;5.76;100.00
79639;BME280;69114;49.108;8.280;2024-02-23T03:38:31;98421.28;;;5.70;100.00
79639;BME280;69114;49.108;8.280;2024-02-23T03:40:59;98425.03;;;5.65;100.00
79639;BME280;69114;49.108;8.280;2024-02-23T03:43:24;98414.97;;;5.60;100.00
79639;BME280;69114;49.108;8.280;2024-02-23T03:45:49;98426.16;;;5.55;100.00
79639;BME280;69114;49.108;8.280;2024-02-23T03:48:15;98435.44;;;5.51;100.00
79639;BME280;69114;49.108;8.280;2024-02-23T03:50:40;98418.72;;;5.47;100.00
79639;BME280;69114;49.108;8.280;2024-02-23T03:53:05;98427.81;;;5.39;100.00
79639;BME280;69114;49.108;8.280;2024-02-23T03:55:31;98444.38;;;5.39;100.00
79639;BME280;69114;49.108;8.280;2024-02-23T03:57:56;98427.97;;;5.34;100.00
79639;BME280;69114;49.108;8.280;2024-02-23T04:00:22;98444.34;;;5.30;100.00
79639;BME280;69114;49.108;8.280;2024-02-23T04:02:48;98440.16;;;5.33;100.00
79639;BME280;69114;49.108;8.280;2024-02-23T04:05:14;98446.94;;;5.27;100.00
79639;BME280;69114;49.108;8.280;2024-02-23T04:07:39;98448.91;;;5.18;100.00
79639;BME280;69114;49.108;8.280;2024-02-23T04:10:05;98455.06;;;5.14;100.00
79639;BME280;69114;49.108;8.280;2024-02-23T04:12:31;98454.72;;;5.07;100.00
79639;BME280;69114;49.108;8.280;2024-02-23T04:14:56;98456.19;;;5.05;100.00
79639;BME280;69114;49.108;8.280;2024-02-23T04:17:22;98456.50;;;4.95;100.00
79639;BME280;69114;49.108;8.280;2024-02-23T04:19:47;98467.34;;;4.91;100.00
79639;BME280;69114;49.108;8.280;2024-02-23T04:22:12;98473.50;;;4.88;100.00
79639;BME280;69114;49.108;8.280;2024-02-23T04:24:39;98479.81;;;4.88;100.00
79639;BME280;69114;49.108;8.280;2024-02-23T04:27:08;98483.91;;;4.91;100.00
79639;BME280;69114;49.108;8.280;2024-02-23T04:29:33;98490.41;;;4.95;100.00
79639;BME280;69114;49.108;8.280;2024-02-23T04:32:00;98481.97;;;5.00;100.00
79639;BME280;69114;49.108;8.280;2024-02-23T04:34:25;98486.88;;;5.03;100.00
79639;BME280;69114;49.108;8.280;2024-02-23T04:36:50;98474.19;;;5.02;100.00
79639;BME280;69114;49.108;8.280;2024-02-23T04:39:16;98483.59;;;5.01;100.00
79639;BME280;69114;49.108;8.280;2024-02-23T04:41:41;98478.25;;;5.05;100.00
79639;BME280;69114;49.108;8.280;2024-02-23T04:44:07;98465.44;;;5.00;100.00
79639;BME280;69114;49.108;8.280;2024-02-23T04:46:32;98471.13;;;5.04;100.00
79639;BME280;69114;49.108;8.280;2024-02-23T04:48:59;98460.53;;;4.97;100.00
79639;BME280;69114;49.108;8.280;2024-02-23T04:51:25;98448.19;;;4.86;100.00
79639;BME280;69114;49.108;8.280;2024-02-23T04:53:50;98444.91;;;4.84;100.00
79639;BME280;69114;49.108;8.280;2024-02-23T04:56:15;98457.75;;;4.80;100.00
79639;BME280;69114;49.108;8.280;2024-02-23T04:58:41;98450.91;;;4.77;100.00
79639;BME280;69114;49.108;8.280;2024-02-23T05:01:09;98454.00;;;4.76;100.00
79639;BME280;69114;49.108;8.280;2024-02-23T05:03:34;98456.63;;;4.81;100.00
79639;BME280;69114;49.108;8.280;2024-02-23T05:06:00;98452.72;;;4.82;100.00
79639;BME280;69114;49.108;8.280;2024-02-23T05:08:25;98454.34;;;4.83;100.00
79639;BME280;69114;49.108;8.280;2024-02-23T05:10:52;98456.63;;;4.81;100.00
79639;BME280;69114;49.108;8.280;2024-02-23T05:13:17;98451.28;;;4.84;100.00
79639;BME280;69114;49.108;8.280;2024-02-23T05:15:43;98447.19;;;4.82;100.00
79639;BME280;69114;49.108;8.280;2024-02-23T05:18:08;98439.88;;;4.77;100.00
79639;BME280;69114;49.108;8.280;2024-02-23T05:20:34;98447.81;;;4.79;100.00
79639;BME280;69114;49.108;8.280;2024-02-23T05:22:59;98448.34;;;4.81;100.00
79639;BME280;69114;49.108;8.280;2024-02-23T05:25:24;98447.19;;;4.82;100.00
79639;BME280;69114;49.108;8.280;2024-02-23T05:27:51;98443.78;;;4.76;100.00
79639;BME280;69114;49.108;8.280;2024-02-23T05:30:16;98442.97;;;4.76;100.00
79639;BME280;69114;49.108;8.280;2024-02-23T05:32:42;98449.59;;;4.66;100.00
79639;BME280;69114;49.108;8.280;2024-02-23T05:35:07;98458.97;;;4.65;100.00
79639;BME280;69114;49.108;8.280;2024-02-23T05:37:34;98457.69;;;4.62;100.00
79639;BME280;69114;49.108;8.280;2024-02-23T05:39:59;98469.84;;;4.61;100.00
79639;BME280;69114;49.108;8.280;2024-02-23T05:42:25;98469.47;;;4.54;100.00
79639;BME280;69114;49.108;8.280;2024-02-23T05:44:51;98462.81;;;4.47;100.00
79639;BME280;69114;49.108;8.280;2024-02-23T05:47:16;98481.59;;;4.45;100.00
79639;BME280;69114;49.108;8.280;2024-02-23T05:49:42;98478.66;;;4.41;100.00
79639;BME280;69114;49.108;8.280;2024-02-23T05:52:08;98482.75;;;4.44;100.00
79639;BME280;69114;49.108;8.280;2024-02-23T05:54:33;98478.66;;;4.41;100.00
79639;BME280;69114;49.108;8.280;2024-02-23T05:56:58;98485.78;;;4.33;100.00
79639;BME280;69114;49.108;8.280;2024-02-23T05:59:24;98489.16;;;4.30;100.00
79639;BME280;69114;49.108;8.280;2024-02-23T06:01:49;98486.84;;;4.24;100.00
79639;BME280;69114;49.108;8.280;2024-02-23T06:04:17;98489.75;;;4.19;100.00
79639;BME280;69114;49.108;8.280;2024-02-23T06:06:42;98492.00;;;4.17;100.00
79639;BME280;69114;49.108;8.280;2024-02-23T06:09:10;98500.78;;;4.19;100.00
79639;BME280;69114;49.108;8.280;2024-02-23T06:11:36;98495.63;;;4.26;100.00
79639;BME280;69114;49.108;8.280;2024-02-23T06:14:01;98494.44;;;4.18;100.00
79639;BME280;69114;49.108;8.280;2024-02-23T06:16:27;98501.88;;;4.18;100.00
79639;BME280;69114;49.108;8.280;2024-02-23T06:18:52;98506.72;;;4.12;100.00
79639;BME280;69114;49.108;8.280;2024-02-23T06:21:17;98509.78;;;4.10;100.00
79639;BME280;69114;49.108;8.280;2024-02-23T06:23:43;98508.38;;;4.22;100.00
79639;BME280;69114;49.108;8.280;2024-02-23T06:26:09;98505.63;;;4.22;100.00
79639;BME280;69114;49.108;8.280;2024-02-23T06:28:34;98505.50;;;4.27;100.00
79639;BME280;69114;49.108;8.280;2024-02-23T06:31:00;98519.16;;;4.32;100.00
79639;BME280;69114;49.108;8.280;2024-02-23T06:33:25;98514.81;;;4.40;100.00
79639;BME280;69114;49.108;8.280;2024-02-23T06:35:51;98519.56;;;4.48;100.00
79639;BME280;69114;49.108;8.280;2024-02-23T06:38:17;98517.63;;;4.48;100.00
79639;BME280;69114;49.108;8.280;2024-02-23T06:40:43;98521.06;;;4.54;100.00
79639;BME280;69114;49.108;8.280;2024-02-23T06:43:08;98509.88;;;4.59;100.00
79639;BME280;69114;49.108;8.280;2024-02-23T06:45:33;98515.22;;;4.55;100.00
79639;BME280;69114;49.108;8.280;2024-02-23T06:47:59;98516.34;;;4.54;100.00
79639;BME280;69114;49.108;8.280;2024-02-23T06:50:24;98507.47;;;4.57;100.00
79639;BME280;69114;49.108;8.280;2024-02-23T06:52:49;98513.97;;;4.61;100.00
79639;BME280;69114;49.108;8.280;2024-02-23T06:55:15;98515.22;;;4.55;100.00
79639;BME280;69114;49.108;8.280;2024-02-23T06:57:42;98518.50;;;4.57;100.00
79639;BME280;69114;49.108;8.280;2024-02-23T07:00:08;98519.63;;;4.56;100.00
79639;BME280;69114;49.108;8.280;2024-02-23T07:02:33;98516.22;;;4.59;100.00
79639;BME280;69114;49.108;8.280;2024-02-23T07:05:02;98516.41;;;4.63;100.00
79639;BME280;69114;49.108;8.280;2024-02-23T07:07:32;98525.50;;;4.63;100.00
79639;BME280;69114;49.108;8.280;2024-02-23T07:10:01;98519.34;;;4.67;100.00
79639;BME280;69114;49.108;8.280;2024-02-23T07:12:27;98513.97;;;4.61;100.00
79639;BME280;69114;49.108;8.280;2024-02-23T07:14:54;98519.50;;;4.61;100.00
79639;BME280;69114;49.108;8.280;2024-02-23T07:17:20;98527.75;;;4.61;100.00
79639;BME280;69114;49.108;8.280;2024-02-23T07:19:45;98530.19;;;4.63;100.00
79639;BME280;69114;49.108;8.280;2024-02-23T07:22:11;98531.38;;;4.71;100.00
79639;BME280;69114;49.108;8.280;2024-02-23T07:24:42;98532.72;;;4.82;100.00
79639;BME280;69114;49.108;8.280;2024-02-23T07:27:08;98541.16;;;4.85;100.00
79639;BME280;69114;49.108;8.280;2024-02-23T07:29:33;98540.41;;;5.02;100.00
79639;BME280;69114;49.108;8.280;2024-02-23T07:31:59;98524.84;;;5.06;100.00
79639;BME280;69114;49.108;8.280;2024-02-23T07:34:24;98531.16;;;5.07;100.00
79639;BME280;69114;49.108;8.280;2024-02-23T07:36:53;98515.16;;;5.18;100.00
79639;BME280;69114;49.108;8.280;2024-02-23T07:39:19;98520.53;;;5.49;100.00
79639;BME280;69114;49.108;8.280;2024-02-23T07:41:44;98524.47;;;5.74;100.00
79639;BME280;69114;49.108;8.280;2024-02-23T07:44:10;98529.38;;;5.94;100.00
79639;BME280;69114;49.108;8.280;2024-02-23T07:46:35;98536.19;;;6.05;100.00
79639;BME280;69114;49.108;8.280;2024-02-23T07:49:02;98530.03;;;6.08;100.00
79639;BME280;69114;49.108;8.280;2024-02-23T07:51:27;98533.19;;;6.45;100.00
79639;BME280;69114;49.108;8.280;2024-02-23T07:53:52;98521.66;;;6.52;98.47
79639;BME280;69114;49.108;8.280;2024-02-23T07:56:18;98529.44;;;6.58;97.17
79639;BME280;69114;49.108;8.280;2024-02-23T07:58:43;98518.06;;;6.51;95.03
79639;BME280;69114;49.108;8.280;2024-02-23T08:01:08;98518.34;;;6.67;96.40
79639;BME280;69114;49.108;8.280;2024-02-23T08:03:34;98516.94;;;6.52;96.06
79639;BME280;69114;49.108;8.280;2024-02-23T08:05:59;98521.34;;;6.45;96.81
79639;BME280;69114;49.108;8.280;2024-02-23T08:08:25;98529.16;;;6.34;97.76
79639;BME280;69114;49.108;8.280;2024-02-23T08:10:52;98520.34;;;6.49;97.04
79639;BME280;69114;49.108;8.280;2024-02-23T08:13:17;98530.25;;;6.50;97.34
79639;BME280;69114;49.108;8.280;2024-02-23T08:15:43;98529.78;;;6.48;96.70
79639;BME280;69114;49.108;8.280;2024-02-23T08:18:08;98529.44;;;6.58;96.87
79639;BME280;69114;49.108;8.280;2024-02-23T08:20:34;98535.47;;;6.60;96.28
79639;BME280;69114;49.108;8.280;2024-02-23T08:22:59;98531.06;;;6.59;95.62
79639;BME280;69114;49.108;8.280;2024-02-23T08:25:24;98546.84;;;6.50;96.96
79639;BME280;69114;49.108;8.280;2024-02-23T08:27:53;98542.97;;;6.60;96.78
79639;BME280;69114;49.108;8.280;2024-02-23T08:30:18;98544.22;;;6.62;95.98
79639;BME280;69114;49.108;8.280;2024-02-23T08:32:45;98562.31;;;6.60;97.36
79639;BME280;69114;49.108;8.280;2024-02-23T08:35:10;98540.13;;;6.68;97.23
79639;BME280;69114;49.108;8.280;2024-02-23T08:37:37;98532.97;;;6.67;94.99
79639;BME280;69114;49.108;8.280;2024-02-23T08:40:02;98535.72;;;6.76;95.43
79639;BME280;69114;49.108;8.280;2024-02-23T08:42:28;98535.22;;;6.83;95.52
79639;BME280;69114;49.108;8.280;2024-02-23T08:44:53;98520.72;;;6.86;92.38
79639;BME280;69114;49.108;8.280;2024-02-23T08:47:19;98527.63;;;7.09;93.36
79639;BME280;69114;49.108;8.280;2024-02-23T08:49:44;98511.84;;;7.31;91.51
79639;BME280;69114;49.108;8.280;2024-02-23T08:52:10;98518.72;;;7.25;91.19
79639;BME280;69114;49.108;8.280;2024-02-23T08:54:36;98522.97;;;7.52;90.49
79639;BME280;69114;49.108;8.280;2024-02-23T08:57:02;98518.94;;;7.70;88.54
79639;BME280;69114;49.108;8.280;2024-02-23T08:59:29;98510.47;;;7.46;89.82
79639;BME280;69114;49.108;8.280;2024-02-23T09:01:54;98515.56;;;7.64;89.27
79639;BME280;69114;49.108;8.280;2024-02-23T09:04:19;98535.16;;;7.30;87.28
79639;BME280;69114;49.108;8.280;2024-02-23T09:06:45;98525.63;;;7.18;89.26
79639;BME280;69114;49.108;8.280;2024-02-23T09:09:10;98524.44;;;6.90;92.29
79639;BME280;69114;49.108;8.280;2024-02-23T09:11:36;98523.59;;;6.98;92.23
79639;BME280;69114;49.108;8.280;2024-02-23T09:14:02;98519.50;;;7.04;91.52
79639;BME280;69114;49.108;8.280;2024-02-23T09:16:27;98514.44;;;7.06;90.26
79639;BME280;69114;49.108;8.280;2024-02-23T09:18:52;98506.75;;;7.12;89.95
79639;BME280;69114;49.108;8.280;2024-02-23T09:21:18;98508.16;;;7.27;89.10
79639;BME280;69114;49.108;8.280;2024-02-23T09:23:44;98512.94;;;7.38;89.33
79639;BME280;69114;49.108;8.280;2024-02-23T09:26:09;98515.66;;;7.47;88.48
79639;BME280;69114;49.108;8.280;2024-02-23T09:28:38;98511.38;;;7.29;89.06
79639;BME280;69114;49.108;8.280;2024-02-23T09:31:03;98517.97;;;7.15;89.57
79639;BME280;69114;49.108;8.280;2024-02-23T09:33:30;98509.00;;;7.18;89.65
79639;BME280;69114;49.108;8.280;2024-02-23T09:35:55;98507.84;;;7.19;88.91
79639;BME280;69114;49.108;8.280;2024-02-23T09:38:24;98500.50;;;7.24;88.46
79639;BME280;69114;49.108;8.280;2024-02-23T09:40:51;98504.69;;;7.30;89.12
79639;BME280;69114;49.108;8.280;2024-02-23T09:43:16;98495.78;;;7.45;87.33
79639;BME280;69114;49.108;8.280;2024-02-23T09:45:43;98497.56;;;7.70;87.35
79639;BME280;69114;49.108;8.280;2024-02-23T09:48:10;98499.47;;;7.79;86.04
79639;BME280;69114;49.108;8.280;2024-02-23T09:50:37;98489.59;;;7.90;85.48
79639;BME280;69114;49.108;8.280;2024-02-23T09:53:04;98489.31;;;8.04;85.86
79639;BME280;69114;49.108;8.280;2024-02-23T09:55:29;98487.94;;;8.10;84.46
79639;BME280;69114;49.108;8.280;2024-02-23T09:57:57;98491.47;;;7.98;84.29
79639;BME280;69114;49.108;8.280;2024-02-23T10:00:23;98488.22;;;7.96;84.57
79639;BME280;69114;49.108;8.280;2024-02-23T10:02:50;98479.25;;;8.11;83.96
79639;BME280;69114;49.108;8.280;2024-02-23T10:05:16;98477.06;;;8.38;84.00
79639;BME280;69114;49.108;8.280;2024-02-23T10:07:42;98477.25;;;8.33;82.69
79639;BME280;69114;49.108;8.280;2024-02-23T10:10:08;98491.53;;;8.43;83.17
79639;BME280;69114;49.108;8.280;2024-02-23T10:12:36;98470.50;;;8.42;81.39
79639;BME280;69114;49.108;8.280;2024-02-23T10:15:02;98470.66;;;8.70;80.65
79639;BME280;69114;49.108;8.280;2024-02-23T10:17:30;98482.84;;;8.45;82.55
79639;BME280;69114;49.108;8.280;2024-02-23T10:19:55;98483.56;;;8.42;80.40
79639;BME280;69114;49.108;8.280;2024-02-23T10:22:22;98461.41;;;8.91;80.34
79639;BME280;69114;49.108;8.280;2024-02-23T10:24:50;98473.88;;;8.60;79.96
79639;BME280;69114;49.108;8.280;2024-02-23T10:27:15;98468.59;;;9.16;78.25
79639;BME280;69114;49.108;8.280;2024-02-23T10:29:41;98476.44;;;8.78;80.17
79639;BME280;69114;49.108;8.280;2024-02-23T10:32:06;98472.75;;;8.98;80.45
79639;BME280;69114;49.108;8.280;2024-02-23T10:34:36;98477.25;;;9.27;80.42
79639;BME280;69114;49.108;8.280;2024-02-23T10:37:03;98485.72;;;9.18;77.73
79639;BME280;69114;49.108;8.280;2024-02-23T10:39:30;98470.91;;;9.14;78.74
79639;BME280;69114;49.108;8.280;2024-02-23T10:41:57;98477.03;;;9.32;79.57
79639;BME280;69114;49.108;8.280;2024-02-23T10:44:24;98486.03;;;9.41;78.89
79639;BME280;69114;49.108;8.280;2024-02-23T10:46:50;98475.28;;;9.28;78.45
79639;BME280;69114;49.108;8.280;2024-02-23T10:49:17;98479.22;;;9.27;79.32
79639;BME280;69114;49.108;8.280;2024-02-23T10:51:45;98480.06;;;9.80;78.64
79639;BME280;69114;49.108;8.280;2024-02-23T10:54:12;98493.84;;;10.16;73.41
79639;BME280;69114;49.108;8.280;2024-02-23T10:56:39;98477.94;;;9.89;75.85
79639;BME280;69114;49.108;8.280;2024-02-23T10:59:04;98489.47;;;10.03;75.00
79639;BME280;69114;49.108;8.280;2024-02-23T11:01:31;98483.03;;;9.34;77.46
79639;BME280;69114;49.108;8.280;2024-02-23T11:03:58;98481.38;;;9.58;76.90
79639;BME280;69114;49.108;8.280;2024-02-23T11:06:27;98496.34;;;9.41;77.57
79639;BME280;69114;49.108;8.280;2024-02-23T11:08:53;98476.88;;;9.53;76.06
79639;BME280;69114;49.108;8.280;2024-02-23T11:11:18;98479.41;;;9.58;77.45
79639;BME280;69114;49.108;8.280;2024-02-23T11:13:45;98473.44;;;9.19;77.95
79639;BME280;69114;49.108;8.280;2024-02-23T11:16:21;98466.50;;;8.89;79.63
79639;BME280;69114;49.108;8.280;2024-02-23T11:18:47;98462.59;;;9.02;78.90
79639;BME280;69114;49.108;8.280;2024-02-23T11:21:12;98465.81;;;9.04;78.42
79639;BME280;69114;49.108;8.280;2024-02-23T11:23:49;98470.22;;;8.93;79.20
79639;BME280;69114;49.108;8.280;2024-02-23T11:26:18;98456.09;;;8.98;79.11
79639;BME280;69114;49.108;8.280;2024-02-23T11:28:50;98467.31;;;9.02;79.04
79639;BME280;69114;49.108;8.280;2024-02-23T11:31:25;98449.25;;;9.32;78.06
79639;BME280;69114;49.108;8.280;2024-02-23T11:33:54;98467.06;;;9.07;80.05
79639;BME280;69114;49.108;8.280;2024-02-23T11:36:32;98460.72;;;8.94;79.18
79639;BME280;69114;49.108;8.280;2024-02-23T11:38:59;98456.19;;;8.77;81.61
79639;BME280;69114;49.108;8.280;2024-02-23T11:41:25;98464.53;;;8.89;80.77
79639;BME280;69114;49.108;8.280;2024-02-23T11:43:51;98468.56;;;8.92;80.44
79639;BME280;69114;49.108;8.280;2024-02-23T11:46:17;98457.47;;;9.04;80.68
79639;BME280;69114;49.108;8.280;2024-02-23T11:48:44;98465.91;;;9.20;79.50
79639;BME280;69114;49.108;8.280;2024-02-23T11:51:10;98467.97;;;9.47;75.84
79639;BME280;69114;49.108;8.280;2024-02-23T11:53:39;98457.25;;;8.97;77.85
79639;BME280;69114;49.108;8.280;2024-02-23T11:56:05;98468.13;;;9.02;77.36
79639;BME280;69114;49.108;8.280;2024-02-23T11:58:32;98472.59;;;9.43;75.24
79639;BME280;69114;49.108;8.280;2024-02-23T12:00:57;98464.13;;;9.40;76.37
79639;BME280;69114;49.108;8.280;2024-02-23T12:03:23;98456.44;;;9.73;74.80
79639;BME280;69114;49.108;8.280;2024-02-23T12:05:50;98466.50;;;9.78;75.26
79639;BME280;69114;49.108;8.280;2024-02-23T12:08:16;98465.03;;;10.84;71.45
79639;BME280;69114;49.108;8.280;2024-02-23T12:10:42;98462.84;;;11.09;70.52
79639;BME280;69114;49.108;8.280;2024-02-23T12:13:08;98471.56;;;10.16;73.04
79639;BME280;69114;49.108;8.280;2024-02-23T12:15:33;98453.75;;;10.05;73.94
79639;BME280;69114;49.108;8.280;2024-02-23T12:17:59;98466.81;;;10.17;75.68
79639;BME280;69114;49.108;8.280;2024-02-23T12:20:27;98466.09;;;9.92;74.36
79639;BME280;69114;49.108;8.280;2024-02-23T12:22:54;98458.69;;;9.56;78.31
79639;BME280;69114;49.108;8.280;2024-02-23T12:25:20;98462.06;;;9.89;76.86
79639;BME280;69114;49.108;8.280;2024-02-23T12:27:46;98455.47;;;9.82;74.24
79639;BME280;69114;49.108;8.280;2024-02-23T12:30:15;98450.97;;;9.37;76.10
79639;BME280;69114;49.108;8.280;2024-02-23T12:32:41;98455.72;;;9.24;76.52
79639;BME280;69114;49.108;8.280;2024-02-23T12:35:06;98451.66;;;9.34;76.55
79639;BME280;69114;49.108;8.280;2024-02-23T12:37:35;98440.91;;;9.20;78.04
79639;BME280;69114;49.108;8.280;2024-02-23T12:40:00;98445.91;;;9.14;77.14
79639;BME280;69114;49.108;8.280;2024-02-23T12:42:25;98447.28;;;9.20;76.68
79639;BME280;69114;49.108;8.280;2024-02-23T12:44:51;98445.44;;;9.12;79.62
79639;BME280;69114;49.108;8.280;2024-02-23T12:47:16;98450.53;;;9.22;78.73
79639;BME280;69114;49.108;8.280;2024-02-23T12:49:41;98447.19;;;9.17;77.33
79639;BME280;69114;49.108;8.280;2024-02-23T12:52:07;98442.63;;;9.24;78.57
79639;BME280;69114;49.108;8.280;2024-02-23T12:54:32;98443.72;;;9.08;77.58
79639;BME280;69114;49.108;8.280;2024-02-23T12:56:57;98440.06;;;9.44;75.46
79639;BME280;69114;49.108;8.280;2024-02-23T12:59:23;98436.50;;;9.71;73.25
79639;BME280;69114;49.108;8.280;2024-02-23T13:01:48;98432.31;;;9.78;75.43